Elmendorf Air Force Base Anchorage US
ICAO: PAED
IATA:
Category: Medium
Scheduled Services:

Elevation: 212 ft
TransAlt. 18000 ft.

Airport Communications:
ANCHORAGE APP/DEP:118.6
DENALI:134.1
ATIS:124.3
RESCUE COORD CNTR:123.1
GND:121.8
OPS:38.1
PMSV METRO:34.66
PTD:37.22
SFA:32.71
TWR:127.2

PAED Zoom In..

Runways:

(A) RW 06 length 10000 ft width 200 ft
ILS 110.30 / hdg 62

(B) RW 16 length 7493 ft width 150 ft
---- / hdg 162

(C) RW 24 length 10000 ft width 200 ft
---- / hdg 242

(D) RW 34 length 7493 ft width 150 ft
---- / hdg 342

Location; PAED
Day. 22 / Time. 23.56 Zulu
* Altimeter: 29.61
* Temperature: -08° c. -17.6°f.
* Wind from: 340° Speed 06 kn.
Dewpoint: -14° c.
Visibility: 10 Statute Miles.
Clouds: Broken 7500 ft.

PAED 222356Z AUTO 34006KT 10SM BKN075 M08/M14 A2961 RMK AO2 SLP026 T10781136 11072 21104 55001


Wind From 340°
Speed 06 kn.

YouTube Music Video
 
jpsmedia.com for Web Design  worldairports.se 2018   terms of use